الصفحة الرئيسية
METAR-TAF:

METAR-TAF

مطار :

Asahikawa, اليابان

دائرة عرض: 43-40N, خط طول: 142-27E, ارتفاع: 208 متر

مراقبة الطقس الحالي

تاريخ ووقت الإصدار 50 دقيقة قبل الساعة 12:00UTC
ريح 4 عقدة من الشرق/الجنوب الشرقي
درجة الحرارة 23°درجة مئوية
الرطوبة 94%
ضغط 1008 hPa
الرؤية 10 كم أو أكثر

METAR: RJEC 201200Z AUTO 12004KT 9999 NCD 23/22 Q1008

زمن: 21:50 (12:50 UTC)

توقعات

تاريخ ووقت الإصدار 1ساعة و 45 دقيقة قبل الساعة 11:05UTC
التوقعات صالحة من20 الساعة 12 UTC إلى 21 الساعة 18 UTC
ريح 5 عقدة من الجنوب
الرؤية 10 كم أو أكثر
غيوم قليلة على ارتفاع 2000 قدم
أصبح
من 21 الساعة 09 UTC إلى 21 الساعة 12 UTC
ريح 16 عقدة من الجنوب

TAF: RJEC 201105Z 2012/2118 17005KT 9999 FEW020 BECMG 2109/2112 17016KT

أرصاد الطقس والتوقعات من أكثر من 4000 مطار (تقارير الطقس للمطار METAR والتنبؤ بالطقس بالمطارTAF).

المحطات المتاحة هي النقط الصفراء والحمراء على الخريطة.

حرك المؤشر فوق النقطة لمعرفة اسم المحطة.

ثم انقر لمعرفة أرصاد وتوقعات الطقس.

لتغيير الخارطة: اضغط على الأزرار الخضراء مع رمز الصليب الأسود للتكبير. على الزر الأخضر مع شرطة للتصغير، أو على الأسهم الخضراء للخرائط المجاورة.


METAR-TAF: